createdAt,value
2023-11-18T00:00:18.989Z,67.58
2023-11-18T00:01:21.735Z,67.54
2023-11-18T00:02:25.990Z,67.35
2023-11-18T00:03:28.732Z,67.60
2023-11-18T00:04:31.690Z,67.48
2023-11-18T00:05:34.291Z,67.40
2023-11-18T00:06:36.899Z,67.18
2023-11-18T00:07:39.772Z,67.29
2023-11-18T00:08:42.410Z,67.23
2023-11-18T00:09:47.152Z,67.49
2023-11-18T00:10:49.797Z,67.47
2023-11-18T00:11:52.470Z,67.49
2023-11-18T00:12:55.049Z,67.32
2023-11-18T00:13:57.694Z,67.27
2023-11-18T00:15:00.365Z,67.25
2023-11-18T00:16:02.970Z,67.29
2023-11-18T00:17:05.677Z,67.30
2023-11-18T00:18:08.402Z,67.25
2023-11-18T00:19:11.007Z,67.35
2023-11-18T00:20:14.995Z,67.29
2023-11-18T00:21:17.993Z,67.33
2023-11-18T00:22:20.884Z,67.35
2023-11-18T00:23:23.503Z,67.52
2023-11-18T00:24:26.069Z,67.53
2023-11-18T00:25:28.652Z,67.34
2023-11-18T00:26:31.245Z,67.25
2023-11-18T00:27:33.911Z,67.35
2023-11-18T00:28:36.544Z,67.68
2023-11-18T00:29:39.171Z,67.46
2023-11-18T00:30:41.841Z,67.29
2023-11-18T00:31:44.504Z,67.39
2023-11-18T00:32:47.439Z,67.44
2023-11-18T00:33:50.062Z,67.43
2023-11-18T00:34:52.652Z,67.24
2023-11-18T00:35:55.235Z,67.35
2023-11-18T00:37:00.756Z,67.33
2023-11-18T00:38:04.062Z,67.51
2023-11-18T00:39:06.734Z,67.49
2023-11-18T00:40:10.688Z,67.34
2023-11-18T00:41:13.818Z,67.16
2023-11-18T00:42:16.773Z,67.27
2023-11-18T00:43:19.490Z,67.41
2023-11-18T00:44:22.992Z,67.21
2023-11-18T00:45:25.644Z,67.28
2023-11-18T00:46:28.304Z,66.91
2023-11-18T00:47:31.338Z,67.14
2023-11-18T00:48:33.991Z,67.09
2023-11-18T00:49:37.250Z,67.03
2023-11-18T00:50:39.961Z,67.23
2023-11-18T00:51:42.557Z,66.99
2023-11-18T00:52:45.284Z,67.00
2023-11-18T00:53:47.913Z,67.19
2023-11-18T00:54:50.511Z,67.20
2023-11-18T00:55:53.134Z,66.92
2023-11-18T00:56:55.767Z,67.14
2023-11-18T00:57:58.353Z,67.12
2023-11-18T00:59:02.501Z,67.15
2023-11-18T01:00:05.517Z,67.29
2023-11-18T01:01:08.283Z,67.16
2023-11-18T01:02:11.074Z,67.14
2023-11-18T01:03:13.854Z,67.29
2023-11-18T01:04:16.688Z,67.31
2023-11-18T01:05:19.296Z,67.32
2023-11-18T01:06:23.295Z,67.33
2023-11-18T01:07:25.917Z,67.27
2023-11-18T01:08:28.533Z,67.34
2023-11-18T01:09:35.928Z,67.56
2023-11-18T01:10:39.574Z,67.27
2023-11-18T01:12:06.853Z,67.11
2023-11-18T01:13:04.715Z,67.31
2023-11-18T01:14:07.696Z,67.30
2023-11-18T01:15:11.814Z,67.37
2023-11-18T01:16:16.040Z,67.45
2023-11-18T01:17:18.675Z,67.40
2023-11-18T01:18:21.835Z,67.61
2023-11-18T01:19:24.846Z,67.68
2023-11-18T01:20:27.636Z,67.74
2023-11-18T01:21:30.195Z,67.85
2023-11-18T01:22:35.846Z,67.86
2023-11-18T01:23:39.822Z,67.86
2023-11-18T01:24:42.497Z,67.95
2023-11-18T01:25:45.372Z,68.16
2023-11-18T01:26:48.045Z,68.20
2023-11-18T01:27:50.635Z,67.96
2023-11-18T01:28:53.234Z,67.89
2023-11-18T01:29:55.844Z,68.04
2023-11-18T01:30:58.460Z,68.26
2023-11-18T01:32:01.264Z,68.47
2023-11-18T01:33:05.235Z,68.73
2023-11-18T01:34:13.335Z,68.66
2023-11-18T01:35:15.934Z,68.79
2023-11-18T01:36:19.309Z,68.81
2023-11-18T01:37:22.965Z,69.05
2023-11-18T01:38:27.287Z,69.17
2023-11-18T01:39:29.870Z,69.19
2023-11-18T01:40:32.925Z,69.23
2023-11-18T01:41:35.767Z,69.35
2023-11-18T01:42:38.377Z,69.40
2023-11-18T01:43:41.316Z,69.48
2023-11-18T01:44:44.321Z,69.36
2023-11-18T01:45:47.977Z,69.50
2023-11-18T01:46:50.735Z,69.58
2023-11-18T01:47:53.493Z,69.58
2023-11-18T01:48:56.117Z,69.62
2023-11-18T01:50:00.775Z,69.62
2023-11-18T01:51:06.269Z,69.55
2023-11-18T01:52:09.747Z,69.57
2023-11-18T01:53:15.305Z,69.69
2023-11-18T01:54:20.349Z,69.76
2023-11-18T01:55:23.263Z,69.65
2023-11-18T01:56:26.490Z,69.68
2023-11-18T01:57:29.119Z,69.64
2023-11-18T01:58:32.273Z,69.67
2023-11-18T01:59:35.367Z,69.79
2023-11-18T02:00:44.315Z,69.78
2023-11-18T02:01:52.777Z,69.73
2023-11-18T02:02:56.158Z,69.74
2023-11-18T02:04:00.645Z,69.89
2023-11-18T02:05:03.502Z,69.73
2023-11-18T02:06:07.311Z,69.85
2023-11-18T02:07:10.688Z,69.87
2023-11-18T02:08:16.330Z,69.76
2023-11-18T02:09:19.960Z,69.76
2023-11-18T02:10:22.668Z,69.81
2023-11-18T02:11:47.236Z,69.74
2023-11-18T02:13:16.589Z,69.88
2023-11-18T02:14:21.756Z,69.88
2023-11-18T02:15:26.345Z,69.90
2023-11-18T02:16:29.589Z,69.80
2023-11-18T02:17:33.199Z,69.89
2023-11-18T02:18:37.329Z,69.80
2023-11-18T02:19:40.968Z,69.70
2023-11-18T02:20:45.037Z,69.57
2023-11-18T02:21:48.949Z,69.65
2023-11-18T02:22:52.000Z,69.67
2023-11-18T02:23:54.686Z,69.51
2023-11-18T02:24:57.321Z,69.54
2023-11-18T02:26:02.513Z,69.46
2023-11-18T02:27:08.900Z,69.46
2023-11-18T02:28:11.509Z,69.42
2023-11-18T02:29:15.402Z,69.37
2023-11-18T02:30:18.889Z,69.36
2023-11-18T02:31:33.236Z,69.35
2023-11-18T02:32:46.074Z,69.28
2023-11-18T02:34:07.692Z,69.43
2023-11-18T02:35:16.844Z,69.35
2023-11-18T02:36:37.044Z,69.43
2023-11-18T02:37:43.553Z,69.16
2023-11-18T02:38:51.500Z,69.11
2023-11-18T02:39:59.734Z,69.13
2023-11-18T02:41:08.076Z,69.08
2023-11-18T02:42:13.665Z,69.04
2023-11-18T02:43:18.105Z,68.93
2023-11-18T02:44:24.410Z,68.93
2023-11-18T02:45:28.476Z,69.13
2023-11-18T02:46:31.292Z,69.24
2023-11-18T02:47:34.601Z,69.08
2023-11-18T02:48:39.196Z,68.81
2023-11-18T02:49:41.778Z,68.88
2023-11-18T02:50:44.382Z,69.25
2023-11-18T02:51:48.847Z,69.10
2023-11-18T02:52:51.674Z,68.88
2023-11-18T02:53:54.293Z,69.01
2023-11-18T02:54:56.899Z,68.78
2023-11-18T02:56:03.801Z,68.55
2023-11-18T02:57:06.506Z,68.46
2023-11-18T02:58:09.241Z,68.70
2023-11-18T02:59:11.817Z,68.61
2023-11-18T03:00:23.420Z,68.75
2023-11-18T03:01:26.630Z,68.90
2023-11-18T03:02:32.117Z,68.87
2023-11-18T03:03:35.007Z,68.84
2023-11-18T03:04:37.655Z,68.85
2023-11-18T03:05:40.843Z,68.78
2023-11-18T03:06:43.435Z,68.84
2023-11-18T03:07:50.858Z,68.83
2023-11-18T03:08:54.108Z,68.60
2023-11-18T03:10:01.081Z,68.67
2023-11-18T03:11:05.930Z,68.64
2023-11-18T03:12:09.242Z,68.72
2023-11-18T03:13:13.421Z,68.79
2023-11-18T03:14:16.225Z,68.94
2023-11-18T03:15:19.183Z,68.92
2023-11-18T03:16:21.794Z,69.00
2023-11-18T03:17:24.426Z,68.86
2023-11-18T03:18:27.133Z,68.90
2023-11-18T03:19:30.610Z,68.86
2023-11-18T03:20:34.789Z,68.88
2023-11-18T03:21:37.884Z,68.74
2023-11-18T03:22:40.530Z,69.14
2023-11-18T03:23:43.234Z,69.42
2023-11-18T03:24:45.815Z,69.12
2023-11-18T03:25:48.405Z,69.14
2023-11-18T03:26:51.944Z,69.12
2023-11-18T03:27:55.873Z,68.99
2023-11-18T03:28:58.520Z,69.02
2023-11-18T03:30:01.277Z,69.16
2023-11-18T03:31:07.793Z,69.25
2023-11-18T03:32:10.413Z,69.22
2023-11-18T03:33:13.068Z,69.27
2023-11-18T03:34:21.230Z,69.27
2023-11-18T03:35:25.767Z,69.28
2023-11-18T03:36:28.787Z,69.26
2023-11-18T03:37:32.414Z,69.28
2023-11-18T03:38:35.253Z,69.38
2023-11-18T03:39:37.826Z,69.48
2023-11-18T03:40:42.676Z,69.45
2023-11-18T03:41:45.751Z,69.47
2023-11-18T03:42:48.446Z,69.58
2023-11-18T03:43:51.092Z,69.58
2023-11-18T03:44:53.742Z,69.72
2023-11-18T03:45:58.135Z,69.86
2023-11-18T03:47:00.832Z,69.95
2023-11-18T03:48:04.348Z,69.90
2023-11-18T03:49:06.965Z,69.90
2023-11-18T03:50:10.282Z,69.89
2023-11-18T03:51:13.017Z,69.94
2023-11-18T03:52:15.619Z,69.99
2023-11-18T03:53:18.225Z,70.09
2023-11-18T03:54:20.778Z,70.08
2023-11-18T03:55:44.278Z,70.10
2023-11-18T03:57:07.410Z,70.17
2023-11-18T03:58:10.333Z,70.33
2023-11-18T03:59:12.994Z,70.26
2023-11-18T04:00:18.783Z,70.20
2023-11-18T04:01:23.024Z,70.00
2023-11-18T04:02:26.275Z,70.02
2023-11-18T04:03:28.970Z,70.12
2023-11-18T04:04:31.673Z,70.14
2023-11-18T04:05:35.684Z,70.08
2023-11-18T04:06:38.264Z,70.10
2023-11-18T04:07:43.893Z,70.15
2023-11-18T04:08:47.095Z,70.38
2023-11-18T04:09:49.719Z,70.22
2023-11-18T04:10:52.315Z,70.17
2023-11-18T04:11:54.919Z,70.06
2023-11-18T04:12:58.296Z,70.07
2023-11-18T04:14:00.968Z,70.17
2023-11-18T04:15:05.794Z,70.30
2023-11-18T04:16:13.503Z,70.36
2023-11-18T04:17:16.169Z,70.56
2023-11-18T04:18:18.936Z,70.47
2023-11-18T04:19:21.522Z,70.42
2023-11-18T04:20:24.614Z,70.50
2023-11-18T04:21:27.243Z,70.43
2023-11-18T04:22:29.982Z,70.47
2023-11-18T04:23:34.079Z,70.54
2023-11-18T04:24:36.680Z,70.54
2023-11-18T04:25:39.338Z,70.58
2023-11-18T04:26:42.509Z,70.58
2023-11-18T04:27:47.044Z,70.65
2023-11-18T04:28:50.738Z,70.75
2023-11-18T04:29:53.341Z,70.64
2023-11-18T04:30:55.971Z,70.53
2023-11-18T04:31:58.687Z,70.63
2023-11-18T04:33:01.719Z,70.73
2023-11-18T04:34:05.514Z,70.74
2023-11-18T04:35:08.508Z,70.76
2023-11-18T04:36:11.299Z,70.83
2023-11-18T04:37:13.899Z,70.87
2023-11-18T04:38:16.536Z,70.95
2023-11-18T04:39:19.122Z,70.93
2023-11-18T04:40:24.325Z,70.88
2023-11-18T04:41:27.283Z,71.00
2023-11-18T04:42:30.953Z,70.92
2023-11-18T04:43:42.360Z,70.90
2023-11-18T04:44:47.940Z,70.93
2023-11-18T04:45:50.724Z,70.87
2023-11-18T04:46:53.316Z,71.00
2023-11-18T04:47:56.046Z,70.98
2023-11-18T04:48:58.820Z,70.88
2023-11-18T04:50:01.511Z,70.99
2023-11-18T04:51:04.121Z,70.93
2023-11-18T04:52:07.660Z,70.84
2023-11-18T04:53:12.044Z,70.72
2023-11-18T04:54:15.434Z,70.72
2023-11-18T04:55:18.344Z,70.72
2023-11-18T04:56:20.970Z,70.80
2023-11-18T04:57:23.590Z,70.88
2023-11-18T04:58:26.196Z,70.91
2023-11-18T04:59:28.803Z,70.92
2023-11-18T05:00:31.421Z,70.85
2023-11-18T05:01:34.708Z,70.88
2023-11-18T05:02:38.573Z,70.91
2023-11-18T05:03:41.310Z,70.95
2023-11-18T05:04:43.992Z,70.84
2023-11-18T05:05:46.591Z,70.85
2023-11-18T05:06:49.921Z,70.96
2023-11-18T05:07:52.566Z,70.92
2023-11-18T05:08:55.909Z,70.97
2023-11-18T05:09:58.608Z,70.97
2023-11-18T05:11:01.348Z,70.86
2023-11-18T05:12:04.337Z,70.85
2023-11-18T05:13:08.137Z,70.67
2023-11-18T05:14:10.779Z,70.69
2023-11-18T05:15:14.029Z,70.84
2023-11-18T05:16:16.690Z,70.89
2023-11-18T05:17:19.405Z,70.87
2023-11-18T05:18:22.458Z,70.81
2023-11-18T05:19:25.106Z,70.89
2023-11-18T05:20:28.779Z,70.91
2023-11-18T05:21:31.414Z,70.88
2023-11-18T05:22:34.039Z,70.92
2023-11-18T05:23:37.008Z,71.01
2023-11-18T05:24:41.703Z,70.92
2023-11-18T05:25:45.627Z,70.87
2023-11-18T05:26:48.346Z,70.88
2023-11-18T05:27:50.984Z,70.75
2023-11-18T05:28:53.604Z,70.73
2023-11-18T05:29:56.233Z,70.85
2023-11-18T05:31:03.634Z,70.95
2023-11-18T05:32:06.837Z,70.96
2023-11-18T05:33:10.469Z,70.96
2023-11-18T05:34:14.009Z,70.92
2023-11-18T05:35:16.657Z,70.74
2023-11-18T05:36:27.929Z,70.69
2023-11-18T05:37:30.821Z,70.66
2023-11-18T05:38:36.179Z,70.68
2023-11-18T05:39:44.216Z,70.77
2023-11-18T05:40:57.713Z,70.69
2023-11-18T05:42:00.903Z,70.56
2023-11-18T05:43:06.547Z,70.61
2023-11-18T05:44:18.457Z,70.50
2023-11-18T05:45:33.058Z,70.45
2023-11-18T05:46:36.380Z,70.58
2023-11-18T05:47:39.115Z,70.52
2023-11-18T05:48:45.625Z,70.37
2023-11-18T05:49:48.242Z,70.47
2023-11-18T05:50:51.049Z,70.48
2023-11-18T05:51:53.659Z,70.53
2023-11-18T05:52:56.691Z,70.49
2023-11-18T05:53:59.363Z,70.77
2023-11-18T05:55:02.005Z,70.79
2023-11-18T05:56:05.959Z,70.82
2023-11-18T05:57:08.568Z,70.77
2023-11-18T05:58:11.296Z,70.80
2023-11-18T05:59:15.277Z,70.71
2023-11-18T06:00:25.460Z,70.85
2023-11-18T06:01:33.496Z,70.82
2023-11-18T06:02:37.563Z,70.76
2023-11-18T06:03:41.116Z,70.75
2023-11-18T06:04:43.859Z,70.90
2023-11-18T06:05:46.463Z,70.97
2023-11-18T06:06:49.061Z,71.10
2023-11-18T06:07:51.727Z,71.06
2023-11-18T06:08:54.981Z,71.11
2023-11-18T06:09:59.061Z,70.81
2023-11-18T06:11:06.655Z,70.87
2023-11-18T06:12:11.487Z,70.76
2023-11-18T06:13:14.208Z,70.92
2023-11-18T06:14:18.266Z,70.96
2023-11-18T06:15:22.466Z,71.00
2023-11-18T06:16:26.316Z,71.00
2023-11-18T06:17:29.353Z,71.00
2023-11-18T06:18:33.417Z,71.02
2023-11-18T06:19:36.089Z,71.06
2023-11-18T06:20:39.643Z,71.06
2023-11-18T06:21:42.374Z,71.00
2023-11-18T06:22:45.012Z,71.01
2023-11-18T06:23:48.952Z,70.98
2023-11-18T06:24:53.107Z,71.12
2023-11-18T06:25:56.004Z,71.02
2023-11-18T06:27:00.869Z,71.07
2023-11-18T06:28:03.603Z,70.84
2023-11-18T06:29:07.299Z,70.93
2023-11-18T06:30:13.011Z,70.94
2023-11-18T06:31:15.627Z,70.83
2023-11-18T06:32:18.300Z,70.93
2023-11-18T06:33:24.629Z,70.76
2023-11-18T06:34:28.233Z,70.79
2023-11-18T06:35:30.863Z,70.76
2023-11-18T06:36:33.480Z,70.86
2023-11-18T06:37:36.185Z,70.71
2023-11-18T06:38:39.138Z,70.71
2023-11-18T06:39:48.930Z,70.73
2023-11-18T06:40:54.282Z,70.64
2023-11-18T06:41:59.578Z,70.62
2023-11-18T06:43:04.131Z,70.79
2023-11-18T06:44:18.707Z,70.65
2023-11-18T06:45:23.272Z,70.53
2023-11-18T06:46:34.990Z,70.68
2023-11-18T06:47:37.981Z,70.62
2023-11-18T06:48:41.917Z,70.68
2023-11-18T06:49:44.576Z,70.48
2023-11-18T06:50:47.760Z,70.45
2023-11-18T06:51:50.346Z,70.51
2023-11-18T06:52:52.933Z,70.31
2023-11-18T06:53:59.086Z,70.39
2023-11-18T06:55:01.697Z,70.28
2023-11-18T06:56:04.522Z,70.29
2023-11-18T06:57:08.448Z,70.25
2023-11-18T06:58:11.102Z,70.13
2023-11-18T06:59:16.465Z,70.21
2023-11-18T07:00:21.923Z,70.17
2023-11-18T07:01:24.498Z,70.14
2023-11-18T07:02:27.154Z,70.23
2023-11-18T07:03:29.890Z,70.21
2023-11-18T07:04:32.502Z,70.15
2023-11-18T07:05:35.495Z,70.22
2023-11-18T07:06:41.002Z,69.95
2023-11-18T07:07:44.600Z,69.71
2023-11-18T07:08:47.325Z,69.51
2023-11-18T07:09:52.402Z,69.68
2023-11-18T07:10:55.151Z,69.39
2023-11-18T07:11:58.090Z,69.35
2023-11-18T07:13:00.832Z,69.29
2023-11-18T07:14:04.453Z,69.12
2023-11-18T07:15:07.815Z,69.19
2023-11-18T07:16:10.547Z,69.23
2023-11-18T07:17:13.897Z,69.25
2023-11-18T07:18:17.485Z,69.27
2023-11-18T07:19:22.039Z,69.26
2023-11-18T07:20:25.214Z,68.90
2023-11-18T07:21:27.847Z,68.90
2023-11-18T07:22:30.566Z,68.64
2023-11-18T07:23:33.746Z,68.70
2023-11-18T07:24:36.312Z,68.74
2023-11-18T07:25:38.911Z,68.63
2023-11-18T07:26:41.520Z,68.80
2023-11-18T07:27:44.105Z,68.87
2023-11-18T07:28:47.002Z,69.02
2023-11-18T07:29:49.660Z,68.97
2023-11-18T07:30:52.283Z,68.67
2023-11-18T07:31:57.829Z,68.59
2023-11-18T07:33:02.521Z,68.50
2023-11-18T07:34:06.949Z,68.51
2023-11-18T07:35:10.697Z,68.53
2023-11-18T07:36:13.327Z,68.34
2023-11-18T07:37:15.920Z,68.37
2023-11-18T07:38:21.451Z,68.36
2023-11-18T07:39:25.818Z,68.23
2023-11-18T07:40:29.645Z,68.33
2023-11-18T07:41:33.774Z,68.18
2023-11-18T07:42:36.913Z,68.11
2023-11-18T07:43:41.743Z,67.90
2023-11-18T07:44:44.377Z,68.06
2023-11-18T07:45:50.676Z,68.03
2023-11-18T07:46:53.281Z,68.07
2023-11-18T07:47:56.558Z,67.92
2023-11-18T07:48:59.209Z,67.80
2023-11-18T07:50:05.721Z,67.60
2023-11-18T07:51:09.555Z,67.61
2023-11-18T07:52:12.186Z,67.38
2023-11-18T07:53:15.657Z,67.52
2023-11-18T07:54:19.496Z,67.34
2023-11-18T07:55:24.465Z,67.45
2023-11-18T07:56:28.264Z,67.45
2023-11-18T07:57:30.884Z,67.30
2023-11-18T07:58:33.503Z,67.32
2023-11-18T07:59:36.121Z,67.20
2023-11-18T08:00:40.225Z,67.13
2023-11-18T08:01:45.879Z,66.92
2023-11-18T08:02:48.618Z,66.78
2023-11-18T08:03:54.383Z,66.80
2023-11-18T08:04:57.944Z,66.67
2023-11-18T08:06:00.540Z,66.53
2023-11-18T08:07:05.728Z,66.79
2023-11-18T08:08:08.938Z,66.87
2023-11-18T08:09:14.508Z,66.47
2023-11-18T08:10:20.250Z,66.40
2023-11-18T08:11:24.734Z,66.27
2023-11-18T08:12:27.410Z,66.20
2023-11-18T08:13:29.998Z,66.11
2023-11-18T08:14:33.610Z,66.26
2023-11-18T08:15:39.178Z,65.87
2023-11-18T08:16:41.869Z,66.19
2023-11-18T08:17:44.889Z,66.44
2023-11-18T08:18:47.548Z,66.10
2023-11-18T08:19:51.170Z,65.55
2023-11-18T08:20:53.737Z,65.37
2023-11-18T08:21:56.334Z,65.30
2023-11-18T08:22:59.183Z,65.54
2023-11-18T08:24:02.846Z,64.81
2023-11-18T08:25:09.590Z,64.81
2023-11-18T08:26:13.448Z,64.87
2023-11-18T08:27:16.172Z,64.67
2023-11-18T08:28:18.799Z,64.66
2023-11-18T08:29:22.663Z,64.15
2023-11-18T08:30:25.353Z,64.10
2023-11-18T08:31:28.266Z,63.62
2023-11-18T08:32:30.899Z,63.78
2023-11-18T08:33:34.420Z,63.84
2023-11-18T08:34:38.842Z,63.80
2023-11-18T08:35:43.345Z,63.42
2023-11-18T08:36:45.958Z,63.09
2023-11-18T08:37:49.064Z,63.20
2023-11-18T08:38:51.726Z,63.42
2023-11-18T08:39:54.393Z,63.11
2023-11-18T08:40:57.057Z,63.10
2023-11-18T08:41:59.985Z,63.45
2023-11-18T08:43:02.553Z,63.57
2023-11-18T08:44:17.874Z,63.70
2023-11-18T08:45:30.648Z,63.29
2023-11-18T08:46:33.703Z,63.39
2023-11-18T08:47:36.977Z,63.17
2023-11-18T08:48:39.591Z,63.10
2023-11-18T08:49:47.510Z,62.71
2023-11-18T08:50:50.562Z,62.35
2023-11-18T08:51:57.893Z,62.27
2023-11-18T08:53:01.279Z,61.85
2023-11-18T08:54:23.331Z,61.81
2023-11-18T08:55:40.678Z,61.91
2023-11-18T08:56:45.356Z,62.03
2023-11-18T08:58:00.836Z,62.23
2023-11-18T08:59:03.571Z,62.28
2023-11-18T09:00:21.300Z,62.18
2023-11-18T09:01:24.956Z,61.02
2023-11-18T09:02:33.013Z,60.49
2023-11-18T09:03:37.676Z,60.67
2023-11-18T09:04:44.326Z,60.83
2023-11-18T09:05:59.783Z,60.30
2023-11-18T09:07:02.544Z,59.87
2023-11-18T09:08:07.400Z,60.12
2023-11-18T09:09:12.601Z,59.76
2023-11-18T09:10:15.175Z,59.93
2023-11-18T09:11:18.402Z,59.51
2023-11-18T09:12:21.391Z,59.18
2023-11-18T09:13:31.278Z,59.76
2023-11-18T09:14:35.030Z,60.01
2023-11-18T09:15:38.208Z,59.59
2023-11-18T09:16:43.053Z,59.41
2023-11-18T09:17:45.939Z,59.53
2023-11-18T09:18:48.638Z,59.61
2023-11-18T09:19:52.521Z,59.70
2023-11-18T09:21:00.443Z,60.02
2023-11-18T09:22:03.073Z,59.90
2023-11-18T09:23:06.289Z,59.01
2023-11-18T09:24:13.420Z,58.60
2023-11-18T09:25:16.997Z,58.60
2023-11-18T09:26:19.818Z,58.63
2023-11-18T09:27:24.103Z,58.25
2023-11-18T09:28:29.800Z,58.28
2023-11-18T09:29:33.613Z,57.74
2023-11-18T09:30:39.995Z,57.65
2023-11-18T09:31:43.489Z,58.29
2023-11-18T09:32:49.029Z,58.17
2023-11-18T09:33:54.735Z,57.91
2023-11-18T09:34:57.313Z,58.07
2023-11-18T09:36:00.694Z,58.28
2023-11-18T09:37:03.339Z,57.83
2023-11-18T09:38:07.288Z,57.49
2023-11-18T09:39:10.135Z,57.76
2023-11-18T09:40:15.864Z,57.82
2023-11-18T09:41:18.685Z,57.96
2023-11-18T09:42:25.492Z,57.89
2023-11-18T09:43:28.109Z,57.40
2023-11-18T09:44:31.539Z,57.62
2023-11-18T09:45:34.629Z,57.35
2023-11-18T09:46:42.134Z,57.69
2023-11-18T09:47:48.645Z,58.01
2023-11-18T09:49:03.135Z,58.09
2023-11-18T09:50:11.342Z,57.76
2023-11-18T09:51:24.435Z,57.95
2023-11-18T09:52:27.856Z,57.44
2023-11-18T09:53:38.323Z,57.78
2023-11-18T09:54:53.539Z,57.67
2023-11-18T09:56:11.135Z,57.59
2023-11-18T09:57:27.558Z,56.90
2023-11-18T09:58:42.472Z,57.07
2023-11-18T10:00:35.986Z,57.24
2023-11-18T10:01:40.720Z,56.98
2023-11-18T10:02:45.806Z,56.89
2023-11-18T10:03:50.498Z,56.87
2023-11-18T10:04:58.759Z,57.19
2023-11-18T10:06:06.141Z,57.47
2023-11-18T10:07:11.418Z,57.23
2023-11-18T10:08:17.605Z,56.94
2023-11-18T10:09:29.550Z,56.97
2023-11-18T10:10:38.277Z,57.06
2023-11-18T10:11:42.482Z,57.04
2023-11-18T10:12:46.167Z,57.67
2023-11-18T10:13:50.081Z,57.80
2023-11-18T10:14:53.452Z,57.61
2023-11-18T10:15:58.553Z,57.65
2023-11-18T10:17:08.020Z,57.51
2023-11-18T10:18:23.216Z,57.48
2023-11-18T10:19:27.306Z,56.92
2023-11-18T10:20:52.413Z,57.13
2023-11-18T10:21:58.032Z,56.40
2023-11-18T10:23:13.280Z,56.14
2023-11-18T10:24:20.670Z,56.15
2023-11-18T10:25:26.730Z,56.20
2023-11-18T10:26:31.053Z,55.73
2023-11-18T10:27:35.582Z,55.88
2023-11-18T10:28:39.218Z,56.52
2023-11-18T10:29:42.251Z,56.43
2023-11-18T10:30:52.067Z,56.44
2023-11-18T10:32:09.048Z,56.45
2023-11-18T10:33:12.734Z,56.31
2023-11-18T10:34:19.016Z,55.97
2023-11-18T10:35:22.145Z,55.47
2023-11-18T10:36:25.376Z,55.03
2023-11-18T10:37:32.904Z,55.10
2023-11-18T10:38:50.900Z,55.33
2023-11-18T10:39:54.195Z,55.76
2023-11-18T10:40:58.734Z,55.99
2023-11-18T10:42:04.035Z,56.16
2023-11-18T10:43:11.495Z,55.77
2023-11-18T10:44:17.338Z,55.97
2023-11-18T10:45:28.860Z,55.72
2023-11-18T10:46:33.464Z,55.55
2023-11-18T10:47:40.465Z,55.43
2023-11-18T10:48:49.111Z,55.27
2023-11-18T10:49:52.492Z,55.47
2023-11-18T10:50:55.428Z,55.30
2023-11-18T10:51:58.201Z,55.31
2023-11-18T10:53:06.430Z,55.16
2023-11-18T10:54:15.173Z,55.38
2023-11-18T10:55:20.545Z,54.67
2023-11-18T10:56:30.129Z,54.21
2023-11-18T10:57:35.381Z,54.08
2023-11-18T10:58:42.274Z,54.34
2023-11-18T11:00:05.491Z,54.45
2023-11-18T11:01:12.769Z,54.16
2023-11-18T11:02:25.342Z,54.31
2023-11-18T11:03:34.551Z,54.91
2023-11-18T11:04:45.060Z,55.08
2023-11-18T11:05:48.287Z,55.49
2023-11-18T11:06:55.535Z,55.71
2023-11-18T11:07:58.462Z,55.86
2023-11-18T11:09:01.104Z,55.68
2023-11-18T11:10:05.690Z,55.30
2023-11-18T11:11:09.626Z,55.29
2023-11-18T11:12:16.501Z,55.56
2023-11-18T11:13:19.703Z,54.88
2023-11-18T11:14:25.561Z,55.15
2023-11-18T11:15:42.063Z,55.17
2023-11-18T11:16:56.707Z,55.67
2023-11-18T11:18:29.139Z,55.43
2023-11-18T11:19:46.228Z,54.87
2023-11-18T11:21:08.696Z,55.29
2023-11-18T11:22:22.373Z,54.85
2023-11-18T11:23:50.963Z,54.66
2023-11-18T11:25:10.304Z,54.43
2023-11-18T11:26:42.570Z,54.05
2023-11-18T11:27:55.217Z,53.82
2023-11-18T11:29:14.312Z,53.80
2023-11-18T11:30:24.096Z,53.44
2023-11-18T11:31:45.617Z,53.22
2023-11-18T11:33:10.060Z,53.03
2023-11-18T11:34:21.649Z,53.87
2023-11-18T11:35:28.235Z,54.24
2023-11-18T11:36:37.486Z,54.40
2023-11-18T11:37:43.358Z,54.76
2023-11-18T11:38:47.988Z,53.86
2023-11-18T11:39:54.905Z,53.97
2023-11-18T11:41:02.121Z,54.13
2023-11-18T11:42:05.210Z,53.61
2023-11-18T11:43:11.815Z,52.27
2023-11-18T11:44:15.059Z,52.45
2023-11-18T11:45:23.664Z,52.21
2023-11-18T11:46:34.531Z,52.18
2023-11-18T11:47:44.566Z,52.56
2023-11-18T11:48:49.103Z,52.97
2023-11-18T11:50:01.753Z,52.92
2023-11-18T11:51:15.743Z,52.02
2023-11-18T11:52:29.461Z,51.83
2023-11-18T11:53:46.718Z,51.92
2023-11-18T11:55:30.435Z,52.18
2023-11-18T11:56:50.599Z,52.84
2023-11-18T11:57:59.550Z,52.51
2023-11-18T11:59:04.061Z,52.25
2023-11-18T12:00:19.906Z,51.90
2023-11-18T12:01:36.745Z,51.87
2023-11-18T12:02:41.888Z,51.25
2023-11-18T12:03:46.561Z,51.52
2023-11-18T12:04:53.862Z,51.76
2023-11-18T12:05:57.578Z,52.10
2023-11-18T12:07:09.253Z,51.78
2023-11-18T12:08:19.810Z,51.95
2023-11-18T12:09:22.918Z,52.02
2023-11-18T12:10:32.343Z,52.02
2023-11-18T12:11:40.830Z,51.95
2023-11-18T12:12:43.471Z,52.14
2023-11-18T12:14:14.544Z,52.38
2023-11-18T12:15:49.821Z,52.71
2023-11-18T12:17:10.120Z,52.79
2023-11-18T12:18:14.433Z,52.73
2023-11-18T12:19:49.400Z,52.94
2023-11-18T12:20:56.540Z,53.08
2023-11-18T12:22:02.100Z,52.60
2023-11-18T12:23:15.528Z,52.61
2023-11-18T12:24:23.558Z,53.03
2023-11-18T12:25:28.534Z,53.02
2023-11-18T12:26:39.705Z,53.17
2023-11-18T12:27:42.371Z,52.96
2023-11-18T12:28:47.179Z,52.43
2023-11-18T12:29:51.986Z,52.57
2023-11-18T12:30:58.972Z,52.01
2023-11-18T12:32:07.094Z,51.89
2023-11-18T12:33:32.582Z,52.39
2023-11-18T12:34:54.988Z,52.62
2023-11-18T12:36:09.329Z,53.10
2023-11-18T12:37:42.286Z,53.20
2023-11-18T12:39:04.453Z,52.03
2023-11-18T12:40:19.206Z,52.50
2023-11-18T12:41:34.361Z,52.49
2023-11-18T12:42:55.174Z,52.62
2023-11-18T12:44:36.709Z,52.48
2023-11-18T12:46:06.889Z,52.77
2023-11-18T12:47:16.315Z,53.57
2023-11-18T12:48:28.218Z,53.70
2023-11-18T12:49:31.636Z,53.79
2023-11-18T12:50:37.065Z,53.72
2023-11-18T12:51:40.126Z,53.29
2023-11-18T12:52:45.576Z,52.93
2023-11-18T12:53:51.601Z,52.57
2023-11-18T12:54:59.645Z,52.82
2023-11-18T12:56:02.603Z,52.67
2023-11-18T12:57:08.569Z,52.63
2023-11-18T12:58:12.989Z,52.61
2023-11-18T12:59:22.420Z,52.72
2023-11-18T13:00:29.031Z,52.95
2023-11-18T13:01:35.174Z,52.99
2023-11-18T13:02:40.417Z,52.91
2023-11-18T13:03:45.350Z,52.68
2023-11-18T13:04:51.415Z,52.88
2023-11-18T13:05:54.623Z,52.80
2023-11-18T13:06:57.469Z,52.72
2023-11-18T13:08:02.445Z,52.86
2023-11-18T13:09:10.987Z,52.83
2023-11-18T13:10:16.713Z,53.12
2023-11-18T13:11:19.648Z,53.06
2023-11-18T13:12:25.010Z,52.78
2023-11-18T13:13:28.156Z,52.61
2023-11-18T13:14:31.993Z,52.69
2023-11-18T13:15:35.582Z,52.45
2023-11-18T13:16:38.495Z,52.85
2023-11-18T13:17:41.999Z,52.94
2023-11-18T13:18:52.795Z,52.90
2023-11-18T13:19:55.566Z,52.23
2023-11-18T13:20:59.207Z,51.82
2023-11-18T13:22:09.141Z,51.99
2023-11-18T13:23:11.827Z,52.45
2023-11-18T13:24:14.433Z,52.30
2023-11-18T13:25:18.633Z,52.66
2023-11-18T13:26:22.236Z,53.02
2023-11-18T13:27:26.886Z,52.42
2023-11-18T13:28:29.465Z,52.67
2023-11-18T13:29:35.431Z,52.47
2023-11-18T13:30:40.917Z,52.65
2023-11-18T13:31:44.192Z,52.18
2023-11-18T13:32:47.395Z,52.10
2023-11-18T13:33:50.370Z,51.77
2023-11-18T13:34:53.332Z,51.97
2023-11-18T13:35:56.154Z,52.23
2023-11-18T13:36:58.793Z,52.20
2023-11-18T13:38:01.557Z,52.26
2023-11-18T13:39:07.945Z,52.35
2023-11-18T13:40:10.981Z,52.80
2023-11-18T13:41:14.730Z,53.09
2023-11-18T13:42:25.438Z,52.98
2023-11-18T13:43:28.041Z,53.18
2023-11-18T13:44:39.796Z,53.16
2023-11-18T13:45:43.780Z,53.21
2023-11-18T13:46:46.664Z,53.31
2023-11-18T13:47:58.748Z,53.10
2023-11-18T13:49:01.589Z,53.06
2023-11-18T13:50:09.338Z,53.15
2023-11-18T13:51:16.900Z,53.51
2023-11-18T13:52:20.569Z,53.48
2023-11-18T13:53:23.788Z,53.64
2023-11-18T13:54:28.110Z,53.75
2023-11-18T13:55:33.308Z,53.54
2023-11-18T13:56:36.172Z,53.40
2023-11-18T13:57:39.214Z,53.85
2023-11-18T13:58:44.199Z,53.44
2023-11-18T13:59:46.820Z,53.25
2023-11-18T14:00:50.686Z,53.31
2023-11-18T14:01:55.580Z,53.61
2023-11-18T14:02:58.856Z,53.62
2023-11-18T14:04:05.628Z,53.90
2023-11-18T14:05:18.084Z,54.05